Terminal Aerodrome Forecast
Issued by NWS

Home | Current Version | Previous Version | Text Only | Print | Product List | Glossary On
Versions: 1 2 3 4 5 6 7 8 9 10 11 12 13 14 15 16
575
FTUS42 KMLB 181149 AAA
TAFLEE
TAF AMD
KLEE 181149Z 1812/1912 00000KT 4SM BR FEW003
      TEMPO 1812/1813 3SM BR BKN003
     FM181400 22006KT P6SM FEW035 BKN250
     FM181800 25006KT P6SM SCT035 BKN250
     FM182300 VRB04KT P6SM FEW045 BKN250=

USA.gov is the U.S. government's official web portal to all federal, state and local government web resources and services.